Time;durP1;ratioP1;P1;durP2;ratioP2;P2;SDS_P1;SDS_P2;PMS_P1;PMS_P2;Temp;Humidity;BMP_temperature;BMP_pressure;BME280_temperature;BME280_humidity;BME280_pressure;Samples;Min_cycle;Max_cycle;Signal;HPM_P1;HPM_P2
2023/12/17 00:00:23;;;;;;;;;;;4.50;88.50;;;;;;5044602;28;20034;-73
2023/12/17 00:02:56;;;;;;;;;;;4.50;88.50;;;;;;5044731;28;20639;-73
2023/12/17 00:05:29;;;;;;;;;;;4.50;88.40;;;;;;5045982;28;19994;-73
2023/12/17 00:08:02;;;;;;;;;;;4.50;88.40;;;;;;5043983;28;19932;-72
2023/12/17 00:10:37;;;;;;;;;;;4.50;88.50;;;;;;5047831;28;19940;-73
2023/12/17 00:13:09;;;;;;;;;;;4.60;88.30;;;;;;5049558;28;19939;-72
2023/12/17 00:15:43;;;;;;;;;;;4.60;88.20;;;;;;5045748;28;19932;-71
2023/12/17 00:18:15;;;;;;;;;;;4.60;88.00;;;;;;5049509;28;19964;-72
2023/12/17 00:20:48;;;;;;;;;;;4.60;88.10;;;;;;5047084;28;20020;-73
2023/12/17 00:23:21;;;;;;;;;;;4.70;88.10;;;;;;5049026;28;19929;-73
2023/12/17 00:25:56;;;;;;;;;;;4.70;88.00;;;;;;5049942;28;19929;-73
2023/12/17 00:28:28;;;;;;;;;;;4.70;88.00;;;;;;5051779;28;20302;-72
2023/12/17 00:31:01;;;;;;;;;;;4.80;88.00;;;;;;5050478;28;19975;-72
2023/12/17 00:33:34;;;;;;;;;;;4.70;87.80;;;;;;5049607;28;19924;-74
2023/12/17 00:36:08;;;;;;;;;;;4.80;88.00;;;;;;5049995;28;19968;-73
2023/12/17 00:38:34;;;;;;;;;;;4.80;88.00;;;;;;5047995;28;19932;-73
2023/12/17 00:41:09;;;;;;;;;;;4.80;88.00;;;;;;5066894;28;19980;-73
2023/12/17 00:43:43;;;;;;;;;;;4.80;88.00;;;;;;5060329;28;19937;-73
2023/12/17 00:46:16;;;;;;;;;;;4.90;88.10;;;;;;5069530;28;19925;-73
2023/12/17 00:48:49;;;;;;;;;;;4.80;87.90;;;;;;5067890;28;19929;-73
2023/12/17 00:51:23;;;;;;;;;;;4.70;88.00;;;;;;5070439;28;20019;-73
2023/12/17 00:53:56;;;;;;;;;;;4.70;88.00;;;;;;5069893;28;19932;-73
2023/12/17 00:56:31;;;;;;;;;;;4.80;88.10;;;;;;5071525;28;19932;-73
2023/12/17 00:59:03;;;;;;;;;;;4.80;87.90;;;;;;5049966;28;19929;-73
2023/12/17 01:01:38;;;;;;;;;;;4.80;87.80;;;;;;5051346;28;20816;-70
2023/12/17 01:04:10;;;;;;;;;;;4.80;87.80;;;;;;5050052;28;19982;-72
2023/12/17 01:06:43;;;;;;;;;;;4.80;87.80;;;;;;5048145;28;19935;-72
2023/12/17 01:09:17;;;;;;;;;;;4.80;88.10;;;;;;5050497;28;20359;-73
2023/12/17 01:11:52;;;;;;;;;;;4.80;87.90;;;;;;5049272;28;20011;-72
2023/12/17 01:14:25;;;;;;;;;;;4.80;88.00;;;;;;5052534;28;20442;-73
2023/12/17 01:16:58;;;;;;;;;;;4.80;88.00;;;;;;5056479;28;20011;-72
2023/12/17 01:19:32;;;;;;;;;;;4.80;88.00;;;;;;5056150;28;19935;-73
2023/12/17 01:22:05;;;;;;;;;;;4.80;88.00;;;;;;5065987;28;20375;-73
2023/12/17 01:24:37;;;;;;;;;;;4.80;88.00;;;;;;5066539;28;19976;-73
2023/12/17 01:27:12;;;;;;;;;;;4.80;88.00;;;;;;5042233;28;19933;-73
2023/12/17 01:29:46;;;;;;;;;;;4.80;88.00;;;;;;5047582;28;20295;-73
2023/12/17 01:32:19;;;;;;;;;;;4.90;88.10;;;;;;5049084;28;19928;-73
2023/12/17 01:34:52;;;;;;;;;;;4.90;88.10;;;;;;5047000;28;20344;-72
2023/12/17 01:37:25;;;;;;;;;;;4.90;88.10;;;;;;5047006;28;20315;-73
2023/12/17 01:39:58;;;;;;;;;;;4.90;88.10;;;;;;5045008;28;19928;-59
2023/12/17 01:42:33;;;;;;;;;;;4.90;88.30;;;;;;5048331;28;19939;-59
2023/12/17 01:45:06;;;;;;;;;;;4.90;88.30;;;;;;5063359;28;19929;-58
2023/12/17 01:47:39;;;;;;;;;;;4.90;88.20;;;;;;5047526;28;19929;-61
2023/12/17 01:50:12;;;;;;;;;;;4.90;88.10;;;;;;5046367;28;19932;-59
2023/12/17 01:52:40;;;;;;;;;;;5.00;88.20;;;;;;5048840;28;19971;-60
2023/12/17 01:55:12;;;;;;;;;;;5.10;88.20;;;;;;5049871;28;19987;-60
2023/12/17 01:57:47;;;;;;;;;;;5.10;88.20;;;;;;5046811;28;19925;-60
2023/12/17 02:00:20;;;;;;;;;;;5.10;88.20;;;;;;5047630;28;19929;-59
2023/12/17 02:02:53;;;;;;;;;;;5.10;88.20;;;;;;5048489;28;19999;-59
2023/12/17 02:05:26;;;;;;;;;;;5.10;88.10;;;;;;5050354;28;20295;-60
2023/12/17 02:08:00;;;;;;;;;;;5.00;88.20;;;;;;5049657;28;19932;-59
2023/12/17 02:10:33;;;;;;;;;;;5.10;88.20;;;;;;5050848;28;20033;-59
2023/12/17 02:13:10;;;;;;;;;;;5.10;88.20;;;;;;5044303;28;20003;-60
2023/12/17 02:15:42;;;;;;;;;;;5.20;88.20;;;;;;5048142;28;19931;-60
2023/12/17 02:18:15;;;;;;;;;;;5.20;88.20;;;;;;5050065;28;19924;-60
2023/12/17 02:20:50;;;;;;;;;;;5.10;88.30;;;;;;5048733;28;20372;-61
2023/12/17 02:23:27;;;;;;;;;;;5.10;88.40;;;;;;5046128;28;19935;-63
2023/12/17 02:26:03;;;;;;;;;;;5.10;88.60;;;;;;5045353;28;19925;-60
2023/12/17 02:28:36;;;;;;;;;;;5.10;88.50;;;;;;5048513;28;20015;-63
2023/12/17 02:31:09;;;;;;;;;;;5.10;88.40;;;;;;5046294;28;19975;-60
2023/12/17 02:33:42;;;;;;;;;;;5.10;88.50;;;;;;5043520;28;20363;-61
2023/12/17 02:36:16;;;;;;;;;;;5.10;88.50;;;;;;5048333;28;19925;-59
2023/12/17 02:38:51;;;;;;;;;;;5.10;88.60;;;;;;5043049;28;19928;-60
2023/12/17 02:41:31;;;;;;;;;;;5.20;88.60;;;;;;5051092;28;19925;-59
2023/12/17 02:44:05;;;;;;;;;;;5.10;88.60;;;;;;5044647;28;19936;-60
2023/12/17 02:46:37;;;;;;;;;;;5.20;88.70;;;;;;5048139;28;20401;-59
2023/12/17 02:49:11;;;;;;;;;;;5.20;88.70;;;;;;5059547;28;19964;-59
2023/12/17 02:51:44;;;;;;;;;;;5.20;88.70;;;;;;5062738;28;20390;-62
2023/12/17 02:54:19;;;;;;;;;;;5.20;88.70;;;;;;5067143;28;19951;-61
2023/12/17 02:56:52;;;;;;;;;;;5.20;88.60;;;;;;5068578;28;19982;-61
2023/12/17 02:59:25;;;;;;;;;;;5.20;88.70;;;;;;5067521;28;20019;-61
2023/12/17 03:01:58;;;;;;;;;;;5.20;88.80;;;;;;5067924;28;19925;-62
2023/12/17 03:04:31;;;;;;;;;;;5.20;88.90;;;;;;5067752;28;20027;-62
2023/12/17 03:07:04;;;;;;;;;;;5.20;88.80;;;;;;5065356;28;20027;-63
2023/12/17 03:09:39;;;;;;;;;;;5.20;88.80;;;;;;5068171;28;19960;-62
2023/12/17 03:12:12;;;;;;;;;;;5.20;88.80;;;;;;5067622;28;19924;-60
2023/12/17 03:14:45;;;;;;;;;;;5.20;88.70;;;;;;5066429;28;19925;-62
2023/12/17 03:17:18;;;;;;;;;;;5.20;88.50;;;;;;5064651;28;20014;-61
2023/12/17 03:19:45;;;;;;;;;;;5.20;88.60;;;;;;5065473;28;19928;-62
2023/12/17 03:22:19;;;;;;;;;;;5.20;88.50;;;;;;5064647;28;19928;-62
2023/12/17 03:24:54;;;;;;;;;;;5.20;88.60;;;;;;5066739;28;20444;-61
2023/12/17 03:27:28;;;;;;;;;;;5.20;88.60;;;;;;5067761;28;19970;-60
2023/12/17 03:30:00;;;;;;;;;;;5.20;88.50;;;;;;5066277;28;20011;-63
2023/12/17 03:32:33;;;;;;;;;;;5.20;88.50;;;;;;5066401;28;19925;-62
2023/12/17 03:35:07;;;;;;;;;;;5.20;88.50;;;;;;5065860;28;20414;-62
2023/12/17 03:37:40;;;;;;;;;;;5.20;88.40;;;;;;5067708;28;20767;-64
2023/12/17 03:40:15;;;;;;;;;;;5.20;88.50;;;;;;5050040;28;20051;-61
2023/12/17 03:42:48;;;;;;;;;;;5.20;88.40;;;;;;5046091;28;20043;-62
2023/12/17 03:45:21;;;;;;;;;;;5.20;88.40;;;;;;5046423;28;19925;-60
2023/12/17 03:47:54;;;;;;;;;;;5.20;88.40;;;;;;5047930;28;19925;-61
2023/12/17 03:50:27;;;;;;;;;;;5.20;88.60;;;;;;5054773;28;19925;-61
2023/12/17 03:53:10;;;;;;;;;;;5.20;88.50;;;;;;5066935;28;19924;-61
2023/12/17 04:06:30;;;;;;;;;;;5.20;88.30;;;;;;5029043;28;20040;-62
2023/12/17 04:09:04;;;;;;;;;;;5.30;88.40;;;;;;5040147;28;19932;-62
2023/12/17 04:11:37;;;;;;;;;;;5.20;88.50;;;;;;5046359;28;19970;-67
2023/12/17 04:14:10;;;;;;;;;;;5.20;88.40;;;;;;5043477;28;20297;-63
2023/12/17 04:16:43;;;;;;;;;;;5.20;88.40;;;;;;5043395;28;19925;-63
2023/12/17 04:19:16;;;;;;;;;;;5.20;88.50;;;;;;5046435;28;19925;-63
2023/12/17 04:21:50;;;;;;;;;;;5.20;88.50;;;;;;5046981;28;20382;-62
2023/12/17 04:24:24;;;;;;;;;;;5.30;88.50;;;;;;5043223;28;20387;-60
2023/12/17 04:26:58;;;;;;;;;;;5.30;88.60;;;;;;5048586;28;19928;-63
2023/12/17 04:29:24;;;;;;;;;;;5.30;88.50;;;;;;5057376;28;20665;-62
2023/12/17 04:31:58;;;;;;;;;;;5.30;88.50;;;;;;5045739;28;20019;-61
2023/12/17 04:34:31;;;;;;;;;;;5.30;88.60;;;;;;5041142;28;19942;-62
2023/12/17 04:37:05;;;;;;;;;;;5.30;88.60;;;;;;5047111;28;19930;-61
2023/12/17 04:39:39;;;;;;;;;;;5.30;88.70;;;;;;5047924;28;19999;-62
2023/12/17 04:42:12;;;;;;;;;;;5.30;88.50;;;;;;5052853;28;19932;-63
2023/12/17 04:44:45;;;;;;;;;;;5.30;88.70;;;;;;5044917;28;19929;-63
2023/12/17 04:47:18;;;;;;;;;;;5.30;88.50;;;;;;5039691;28;19955;-59
2023/12/17 04:49:51;;;;;;;;;;;5.30;88.60;;;;;;5041520;28;19929;-61
2023/12/17 04:52:25;;;;;;;;;;;5.30;88.50;;;;;;5037447;28;19929;-63
2023/12/17 04:54:59;;;;;;;;;;;5.30;88.60;;;;;;5043885;28;19931;-63
2023/12/17 04:57:32;;;;;;;;;;;5.30;88.50;;;;;;5046533;28;19933;-62
2023/12/17 05:00:06;;;;;;;;;;;5.30;88.40;;;;;;5047368;28;19924;-61
2023/12/17 05:02:39;;;;;;;;;;;5.30;88.40;;;;;;5043348;28;19933;-62
2023/12/17 05:05:12;;;;;;;;;;;5.20;88.40;;;;;;5046601;28;19932;-63
2023/12/17 05:07:46;;;;;;;;;;;5.30;88.60;;;;;;5047729;28;19925;-62
2023/12/17 05:10:20;;;;;;;;;;;5.30;88.40;;;;;;5045779;28;19995;-74
2023/12/17 05:12:53;;;;;;;;;;;5.20;88.30;;;;;;5055369;28;19937;-75
2023/12/17 05:15:27;;;;;;;;;;;5.20;88.30;;;;;;5046164;28;19987;-74
2023/12/17 05:18:00;;;;;;;;;;;5.30;88.20;;;;;;5053544;28;19924;-73
2023/12/17 05:20:33;;;;;;;;;;;5.30;88.20;;;;;;5047801;28;19929;-75
2023/12/17 05:23:08;;;;;;;;;;;5.30;88.10;;;;;;5067429;28;19925;-74
2023/12/17 05:25:47;;;;;;;;;;;5.30;88.20;;;;;;5061279;28;22580;-73
2023/12/17 05:28:21;;;;;;;;;;;5.30;88.00;;;;;;5062946;28;19925;-74
2023/12/17 05:30:54;;;;;;;;;;;5.30;88.00;;;;;;5067435;28;20011;-74
2023/12/17 05:33:27;;;;;;;;;;;5.30;88.10;;;;;;5049554;28;19949;-73
2023/12/17 05:36:00;;;;;;;;;;;5.30;88.10;;;;;;5045761;28;20426;-73
2023/12/17 05:38:34;;;;;;;;;;;5.30;88.00;;;;;;5045860;28;19925;-75
2023/12/17 05:41:08;;;;;;;;;;;5.30;88.00;;;;;;5045373;28;19937;-76
2023/12/17 05:43:41;;;;;;;;;;;5.30;87.90;;;;;;5045165;28;20379;-73
2023/12/17 05:46:14;;;;;;;;;;;5.30;88.00;;;;;;5044182;28;20291;-72
2023/12/17 05:48:47;;;;;;;;;;;5.30;87.90;;;;;;5043860;28;19929;-73
2023/12/17 05:51:20;;;;;;;;;;;5.30;87.90;;;;;;5051345;28;19932;-73
2023/12/17 05:53:55;;;;;;;;;;;5.30;87.90;;;;;;5051952;28;20020;-75
2023/12/17 05:56:29;;;;;;;;;;;5.30;87.90;;;;;;5063276;28;19925;-73
2023/12/17 05:58:55;;;;;;;;;;;5.30;87.90;;;;;;5047577;28;19928;-75
2023/12/17 06:01:29;;;;;;;;;;;5.30;87.90;;;;;;5044648;28;19939;-72
2023/12/17 06:04:02;;;;;;;;;;;5.30;88.00;;;;;;5048953;28;20412;-75
2023/12/17 06:06:35;;;;;;;;;;;5.30;88.00;;;;;;5062413;28;19933;-73
2023/12/17 06:09:03;;;;;;;;;;;5.30;87.90;;;;;;5065569;28;19928;-74
2023/12/17 06:11:37;;;;;;;;;;;5.30;87.90;;;;;;5051213;28;19925;-72
2023/12/17 06:14:11;;;;;;;;;;;5.30;87.80;;;;;;5067548;28;19924;-74
2023/12/17 06:16:44;;;;;;;;;;;5.30;87.90;;;;;;5064052;28;20303;-74
2023/12/17 06:19:17;;;;;;;;;;;5.30;87.90;;;;;;5040923;28;20448;-74
2023/12/17 06:21:50;;;;;;;;;;;5.20;88.00;;;;;;5052551;28;19935;-72
2023/12/17 06:24:24;;;;;;;;;;;5.20;88.20;;;;;;5066423;28;20023;-72
2023/12/17 06:26:57;;;;;;;;;;;5.20;88.40;;;;;;5045779;28;19933;-73
2023/12/17 06:29:30;;;;;;;;;;;5.20;88.50;;;;;;5061094;28;19935;-73
2023/12/17 06:32:04;;;;;;;;;;;5.20;88.60;;;;;;5057057;28;19925;-74
2023/12/17 06:34:37;;;;;;;;;;;5.20;88.70;;;;;;5060163;28;20020;-73
2023/12/17 06:37:11;;;;;;;;;;;5.20;88.70;;;;;;5053324;28;19935;-73
2023/12/17 06:39:46;;;;;;;;;;;5.20;88.70;;;;;;5051689;28;19932;-73
2023/12/17 06:42:20;;;;;;;;;;;5.20;88.80;;;;;;5048227;28;20834;-72
2023/12/17 06:44:53;;;;;;;;;;;5.20;88.80;;;;;;5063393;28;20793;-73
2023/12/17 06:47:19;;;;;;;;;;;5.20;88.80;;;;;;5048004;28;19925;-73
2023/12/17 06:49:54;;;;;;;;;;;5.30;88.70;;;;;;5054644;28;19932;-74
2023/12/17 06:52:27;;;;;;;;;;;5.30;88.70;;;;;;5051842;28;19929;-72
2023/12/17 06:55:01;;;;;;;;;;;5.20;88.80;;;;;;5067068;28;20379;-72
2023/12/17 06:57:35;;;;;;;;;;;5.20;88.80;;;;;;5063666;28;20041;-74
2023/12/17 07:00:08;;;;;;;;;;;5.20;88.80;;;;;;5052687;28;20011;-73
2023/12/17 07:02:42;;;;;;;;;;;5.30;88.80;;;;;;5063093;28;19989;-73
2023/12/17 07:05:16;;;;;;;;;;;5.20;88.90;;;;;;5057503;28;19929;-73
2023/12/17 07:07:50;;;;;;;;;;;5.20;88.90;;;;;;5063685;28;19924;-72
2023/12/17 07:10:24;;;;;;;;;;;5.20;89.10;;;;;;5062992;28;19925;-73
2023/12/17 07:12:58;;;;;;;;;;;5.20;89.10;;;;;;5065732;28;19993;-73
2023/12/17 07:15:24;;;;;;;;;;;5.20;89.20;;;;;;5064944;28;19932;-72
2023/12/17 07:17:58;;;;;;;;;;;5.30;89.20;;;;;;5064301;28;19960;-72
2023/12/17 07:20:31;;;;;;;;;;;5.30;89.10;;;;;;5049229;28;19925;-72
2023/12/17 07:23:04;;;;;;;;;;;5.30;89.20;;;;;;5040601;28;20342;-72
2023/12/17 07:25:38;;;;;;;;;;;5.30;89.20;;;;;;5060729;28;19966;-69
2023/12/17 07:28:12;;;;;;;;;;;5.30;89.20;;;;;;5065915;28;19985;-73
2023/12/17 07:30:45;;;;;;;;;;;5.20;89.30;;;;;;5063754;28;19928;-73
2023/12/17 07:33:18;;;;;;;;;;;5.20;89.40;;;;;;5041067;28;19933;-73
2023/12/17 07:35:51;;;;;;;;;;;5.20;89.40;;;;;;5041198;28;19959;-73
2023/12/17 07:38:24;;;;;;;;;;;5.20;89.40;;;;;;5041316;28;19932;-73
2023/12/17 07:40:58;;;;;;;;;;;5.20;89.50;;;;;;5048646;28;19959;-74
2023/12/17 07:43:32;;;;;;;;;;;5.30;89.50;;;;;;5043589;28;20002;-74
2023/12/17 07:46:05;;;;;;;;;;;5.20;89.50;;;;;;5042166;28;19970;-74
2023/12/17 07:48:38;;;;;;;;;;;5.30;89.50;;;;;;5046636;28;19925;-72
2023/12/17 07:51:11;;;;;;;;;;;5.30;89.50;;;;;;5063311;28;19924;-74
2023/12/17 07:53:44;;;;;;;;;;;5.30;89.40;;;;;;5065520;28;19928;-74
2023/12/17 07:56:18;;;;;;;;;;;5.30;89.40;;;;;;5064890;28;19939;-73
2023/12/17 07:58:52;;;;;;;;;;;5.20;89.50;;;;;;5064706;28;19940;-72
2023/12/17 08:01:27;;;;;;;;;;;5.30;89.50;;;;;;5062546;28;20026;-74
2023/12/17 08:04:01;;;;;;;;;;;5.30;89.50;;;;;;5065084;28;19966;-74
2023/12/17 08:06:34;;;;;;;;;;;5.30;89.40;;;;;;5065836;28;19943;-74
2023/12/17 08:09:07;;;;;;;;;;;5.20;89.40;;;;;;5053661;28;20012;-74
2023/12/17 08:11:41;;;;;;;;;;;5.20;89.40;;;;;;5059003;28;19924;-73
2023/12/17 08:14:15;;;;;;;;;;;5.30;89.50;;;;;;5061814;28;19932;-74
2023/12/17 08:16:48;;;;;;;;;;;5.30;89.40;;;;;;5062692;28;19975;-72
2023/12/17 08:19:21;;;;;;;;;;;5.30;89.40;;;;;;5065183;28;19944;-74
2023/12/17 08:21:55;;;;;;;;;;;5.30;89.30;;;;;;5056280;28;19939;-73
2023/12/17 08:24:28;;;;;;;;;;;5.30;89.20;;;;;;5063969;28;19925;-74
2023/12/17 08:27:02;;;;;;;;;;;5.30;89.10;;;;;;5065190;28;20389;-73
2023/12/17 08:29:36;;;;;;;;;;;5.30;89.10;;;;;;5066258;28;19931;-73
2023/12/17 08:32:09;;;;;;;;;;;5.30;89.00;;;;;;5055930;28;19935;-74
2023/12/17 08:34:43;;;;;;;;;;;5.30;89.00;;;;;;5049778;28;20027;-74
2023/12/17 08:37:16;;;;;;;;;;;5.30;88.80;;;;;;5059087;28;19925;-72
2023/12/17 08:39:56;;;;;;;;;;;5.30;88.80;;;;;;5048381;28;19932;-61
2023/12/17 08:42:30;;;;;;;;;;;5.30;88.70;;;;;;5045970;28;19933;-73
2023/12/17 08:45:04;;;;;;;;;;;5.30;88.60;;;;;;5051516;28;20376;-73
2023/12/17 08:47:38;;;;;;;;;;;5.30;88.50;;;;;;5064630;28;19925;-70
2023/12/17 08:50:12;;;;;;;;;;;5.30;88.60;;;;;;5062124;28;20043;-73
2023/12/17 08:52:46;;;;;;;;;;;5.40;88.50;;;;;;5046801;28;19974;-71
2023/12/17 08:55:20;;;;;;;;;;;5.40;88.40;;;;;;5044180;28;19925;-72
2023/12/17 08:57:55;;;;;;;;;;;5.40;88.40;;;;;;5047142;28;19929;-74
2023/12/17 09:00:29;;;;;;;;;;;5.40;88.40;;;;;;5044873;28;20002;-73
2023/12/17 09:03:02;;;;;;;;;;;5.40;88.30;;;;;;5045114;28;19979;-72
2023/12/17 09:05:35;;;;;;;;;;;5.40;88.20;;;;;;5042697;28;20032;-73
2023/12/17 09:08:08;;;;;;;;;;;5.40;88.20;;;;;;5045592;28;20025;-73
2023/12/17 09:10:41;;;;;;;;;;;5.60;88.30;;;;;;5045079;28;19924;-72
2023/12/17 09:13:15;;;;;;;;;;;5.50;88.10;;;;;;5045400;28;19929;-74
2023/12/17 09:15:49;;;;;;;;;;;5.60;88.20;;;;;;5049070;28;19929;-73
2023/12/17 09:18:22;;;;;;;;;;;5.50;88.20;;;;;;5053942;28;19979;-72
2023/12/17 09:20:55;;;;;;;;;;;5.50;87.90;;;;;;5043558;28;19933;-72
2023/12/17 09:23:29;;;;;;;;;;;5.50;88.00;;;;;;5050332;28;19936;-73
2023/12/17 09:26:02;;;;;;;;;;;5.70;88.10;;;;;;5065623;28;19932;-74
2023/12/17 09:28:36;;;;;;;;;;;5.70;88.00;;;;;;5053470;28;19951;-73
2023/12/17 09:31:10;;;;;;;;;;;5.70;87.80;;;;;;5065123;28;19935;-73
2023/12/17 09:33:43;;;;;;;;;;;5.70;87.70;;;;;;5063942;28;19932;-73
2023/12/17 09:36:16;;;;;;;;;;;5.60;87.80;;;;;;5066221;28;19925;-72
2023/12/17 09:38:50;;;;;;;;;;;5.70;87.80;;;;;;5064549;28;20011;-72
2023/12/17 09:41:23;;;;;;;;;;;5.80;87.70;;;;;;5082493;28;19931;-73
2023/12/17 09:43:59;;;;;;;;;;;5.80;87.50;;;;;;5065647;28;19978;-73
2023/12/17 09:46:32;;;;;;;;;;;5.70;87.40;;;;;;5065216;28;19925;-73
2023/12/17 09:49:05;;;;;;;;;;;5.80;87.40;;;;;;5058044;28;19960;-73
2023/12/17 09:51:39;;;;;;;;;;;5.80;87.40;;;;;;5055955;28;19925;-73
2023/12/17 09:54:13;;;;;;;;;;;5.90;87.40;;;;;;5047460;28;19933;-73
2023/12/17 09:56:47;;;;;;;;;;;5.90;87.40;;;;;;5060965;28;19951;-73
2023/12/17 09:59:22;;;;;;;;;;;5.90;87.10;;;;;;5058217;28;19932;-74
2023/12/17 10:01:56;;;;;;;;;;;5.90;87.20;;;;;;5065484;28;19940;-59
2023/12/17 10:04:30;;;;;;;;;;;5.90;87.30;;;;;;5066680;28;20380;-59
2023/12/17 10:07:03;;;;;;;;;;;5.90;87.30;;;;;;5064090;28;19933;-58
2023/12/17 10:09:36;;;;;;;;;;;6.00;87.00;;;;;;5061381;28;20345;-61
2023/12/17 10:12:09;;;;;;;;;;;6.00;87.00;;;;;;5047002;28;19940;-56
2023/12/17 10:14:44;;;;;;;;;;;5.90;86.90;;;;;;5045802;28;19929;-58
2023/12/17 10:17:12;;;;;;;;;;;6.00;87.20;;;;;;5053595;28;19931;-62
2023/12/17 10:19:49;;;;;;;;;;;6.00;86.80;;;;;;5063153;28;19932;-62
2023/12/17 10:22:22;;;;;;;;;;;6.00;87.00;;;;;;5051908;28;19932;-60
2023/12/17 10:24:55;;;;;;;;;;;6.00;86.90;;;;;;5063134;28;19936;-61
2023/12/17 10:27:30;;;;;;;;;;;5.90;87.00;;;;;;5058683;28;20430;-62
2023/12/17 10:30:00;;;;;;;;;;;5.90;86.90;;;;;;5064912;28;19925;-61
2023/12/17 10:32:34;;;;;;;;;;;5.80;87.00;;;;;;5066637;28;19929;-60
2023/12/17 10:35:08;;;;;;;;;;;5.90;87.00;;;;;;5043814;28;20395;-59
2023/12/17 10:37:41;;;;;;;;;;;5.80;86.80;;;;;;5061532;28;19983;-58
2023/12/17 10:40:15;;;;;;;;;;;5.80;86.90;;;;;;5053515;28;19925;-59
2023/12/17 10:42:49;;;;;;;;;;;5.80;86.90;;;;;;5043341;28;19970;-58
2023/12/17 10:45:25;;;;;;;;;;;5.90;87.10;;;;;;5046970;28;19925;-58
2023/12/17 10:48:00;;;;;;;;;;;5.80;86.90;;;;;;5054853;28;19926;-60
2023/12/17 10:50:34;;;;;;;;;;;5.90;86.80;;;;;;5061605;28;19935;-60
2023/12/17 10:53:07;;;;;;;;;;;5.80;86.80;;;;;;5055695;28;19933;-59
2023/12/17 10:55:40;;;;;;;;;;;5.80;86.90;;;;;;5048642;28;19960;-60
2023/12/17 10:58:15;;;;;;;;;;;5.90;87.00;;;;;;5054498;28;19956;-58
2023/12/17 11:00:51;;;;;;;;;;;5.90;87.00;;;;;;5043246;28;19932;-61
2023/12/17 11:03:25;;;;;;;;;;;5.90;86.80;;;;;;5056886;28;20013;-58
2023/12/17 11:05:59;;;;;;;;;;;5.90;86.90;;;;;;5065845;28;19928;-57
2023/12/17 11:08:32;;;;;;;;;;;5.90;86.90;;;;;;5067334;28;19924;-58
2023/12/17 11:11:05;;;;;;;;;;;5.90;86.90;;;;;;5051359;28;19924;-73
2023/12/17 11:13:38;;;;;;;;;;;6.00;86.90;;;;;;5043749;28;19926;-73
2023/12/17 11:16:29;;;;;;;;;;;6.00;86.80;;;;;;5044054;28;19929;-72
2023/12/17 11:19:04;;;;;;;;;;;6.10;86.70;;;;;;5041606;28;20655;-71
2023/12/17 11:21:38;;;;;;;;;;;6.30;86.50;;;;;;5045508;28;19955;-73
2023/12/17 11:24:26;;;;;;;;;;;6.40;86.20;;;;;;5046946;28;21390;-73
2023/12/17 11:27:06;;;;;;;;;;;6.50;86.10;;;;;;5043344;28;19925;-73
2023/12/17 11:29:41;;;;;;;;;;;6.60;86.00;;;;;;5041137;28;20475;-73
2023/12/17 11:32:14;;;;;;;;;;;6.60;85.70;;;;;;5042360;28;20392;-72
2023/12/17 11:34:50;;;;;;;;;;;6.70;85.60;;;;;;5046454;28;20015;-73
2023/12/17 11:37:24;;;;;;;;;;;6.70;85.50;;;;;;5043751;28;19924;-74
2023/12/17 11:39:57;;;;;;;;;;;6.70;85.50;;;;;;5042179;28;19932;-73
2023/12/17 11:42:31;;;;;;;;;;;6.70;85.60;;;;;;5043614;28;19929;-72
2023/12/17 11:45:04;;;;;;;;;;;6.80;85.30;;;;;;5041420;28;19928;-73
2023/12/17 11:47:37;;;;;;;;;;;6.70;85.40;;;;;;5045721;28;19935;-71
2023/12/17 11:50:12;;;;;;;;;;;6.80;85.20;;;;;;5043357;28;19929;-72
2023/12/17 11:52:48;;;;;;;;;;;6.90;84.80;;;;;;5044279;28;19933;-73
2023/12/17 11:55:21;;;;;;;;;;;6.80;85.00;;;;;;5045495;28;20370;-72
2023/12/17 11:58:00;;;;;;;;;;;6.90;84.80;;;;;;5052214;28;20001;-72
2023/12/17 12:00:34;;;;;;;;;;;6.90;84.80;;;;;;5062386;28;19968;-72
2023/12/17 12:03:07;;;;;;;;;;;6.90;84.80;;;;;;5066213;28;19928;-73
2023/12/17 12:05:41;;;;;;;;;;;6.90;84.70;;;;;;5057521;28;19925;-74
2023/12/17 12:08:15;;;;;;;;;;;7.00;84.70;;;;;;5071865;28;19924;-74
2023/12/17 12:10:48;;;;;;;;;;;7.10;84.50;;;;;;5071503;28;19940;-73
2023/12/17 12:13:22;;;;;;;;;;;7.10;84.50;;;;;;5067003;28;20023;-74
2023/12/17 12:15:56;;;;;;;;;;;7.20;84.30;;;;;;5068815;28;19925;-73
2023/12/17 12:18:30;;;;;;;;;;;7.20;84.20;;;;;;5066169;28;20284;-73
2023/12/17 12:21:14;;;;;;;;;;;7.20;84.10;;;;;;5051656;28;19936;-74
2023/12/17 12:23:52;;;;;;;;;;;7.20;84.10;;;;;;5051561;28;19941;-73
2023/12/17 12:26:25;;;;;;;;;;;7.30;84.10;;;;;;5047569;28;20002;-74
2023/12/17 12:29:00;;;;;;;;;;;7.30;84.10;;;;;;5047750;28;19933;-73
2023/12/17 12:31:34;;;;;;;;;;;7.40;84.10;;;;;;5051844;28;19928;-73
2023/12/17 12:34:07;;;;;;;;;;;7.40;84.20;;;;;;5044443;28;19978;-74
2023/12/17 12:36:45;;;;;;;;;;;7.40;84.30;;;;;;5047883;28;19931;-75
2023/12/17 12:39:19;;;;;;;;;;;7.40;84.20;;;;;;5043250;28;19932;-72
2023/12/17 12:41:53;;;;;;;;;;;7.40;84.30;;;;;;5046048;28;19928;-75
2023/12/17 12:44:26;;;;;;;;;;;7.40;84.30;;;;;;5049428;28;19933;-74
2023/12/17 12:46:59;;;;;;;;;;;7.40;84.20;;;;;;5066581;28;20425;-73
2023/12/17 12:49:32;;;;;;;;;;;7.30;84.40;;;;;;5048632;28;19982;-72
2023/12/17 12:52:06;;;;;;;;;;;7.30;84.40;;;;;;5066875;28;20368;-74
2023/12/17 12:54:40;;;;;;;;;;;7.30;84.40;;;;;;5051264;28;19979;-74
2023/12/17 12:57:13;;;;;;;;;;;7.30;84.40;;;;;;5064419;28;19947;-73
2023/12/17 12:59:46;;;;;;;;;;;7.30;84.30;;;;;;5066938;28;20157;-73
2023/12/17 13:02:20;;;;;;;;;;;7.30;84.50;;;;;;5068579;28;19943;-74
2023/12/17 13:04:53;;;;;;;;;;;7.40;84.70;;;;;;5064348;28;20371;-74
2023/12/17 13:07:27;;;;;;;;;;;7.40;84.60;;;;;;5068228;28;20230;-75
2023/12/17 13:10:01;;;;;;;;;;;7.40;84.60;;;;;;5061868;28;19929;-74
2023/12/17 13:12:34;;;;;;;;;;;7.30;84.60;;;;;;5057310;28;19939;-75
2023/12/17 13:15:08;;;;;;;;;;;7.40;84.60;;;;;;5064393;28;19926;-73
2023/12/17 13:17:35;;;;;;;;;;;7.40;84.50;;;;;;5067713;28;19929;-71
2023/12/17 13:20:09;;;;;;;;;;;7.40;84.40;;;;;;5068170;28;19935;-74
2023/12/17 13:22:43;;;;;;;;;;;7.40;84.40;;;;;;5066638;28;19924;-72
2023/12/17 13:25:17;;;;;;;;;;;7.50;84.40;;;;;;5068565;28;19932;-74
2023/12/17 13:27:51;;;;;;;;;;;7.50;84.40;;;;;;5070649;28;20397;-73
2023/12/17 13:30:25;;;;;;;;;;;7.50;84.50;;;;;;5064820;28;20031;-75
2023/12/17 13:33:03;;;;;;;;;;;7.50;84.40;;;;;;5052558;28;19935;-75
2023/12/17 13:35:38;;;;;;;;;;;7.50;84.40;;;;;;5048196;28;19932;-72
2023/12/17 13:38:06;;;;;;;;;;;7.50;84.30;;;;;;5067825;28;19935;-73
2023/12/17 13:40:40;;;;;;;;;;;7.60;84.40;;;;;;5066430;28;19955;-72
2023/12/17 13:43:13;;;;;;;;;;;7.60;84.40;;;;;;5066427;28;19933;-73
2023/12/17 13:45:46;;;;;;;;;;;7.60;84.30;;;;;;5062747;28;20414;-71
2023/12/17 13:48:19;;;;;;;;;;;7.60;84.30;;;;;;5069194;28;19932;-71
2023/12/17 13:50:52;;;;;;;;;;;7.60;84.30;;;;;;5066927;28;19924;-73
2023/12/17 13:53:26;;;;;;;;;;;7.60;84.30;;;;;;5063786;28;19932;-72
2023/12/17 13:56:00;;;;;;;;;;;7.60;84.20;;;;;;5066804;28;19930;-75
2023/12/17 13:58:33;;;;;;;;;;;7.60;84.20;;;;;;5064337;28;20300;-74
2023/12/17 14:01:07;;;;;;;;;;;7.60;84.40;;;;;;5067365;28;20398;-72
2023/12/17 14:03:41;;;;;;;;;;;7.60;84.50;;;;;;5049436;28;19928;-75
2023/12/17 14:06:15;;;;;;;;;;;7.50;84.30;;;;;;5059434;28;19929;-74
2023/12/17 14:08:51;;;;;;;;;;;7.50;84.50;;;;;;5057897;28;20343;-75
2023/12/17 14:11:24;;;;;;;;;;;7.50;84.30;;;;;;5069231;28;19924;-75
2023/12/17 14:13:57;;;;;;;;;;;7.50;84.40;;;;;;5065702;28;19968;-74
2023/12/17 14:16:30;;;;;;;;;;;7.40;84.40;;;;;;5066605;28;19928;-74
2023/12/17 14:19:04;;;;;;;;;;;7.50;84.60;;;;;;5065202;28;19932;-72
2023/12/17 14:21:44;;;;;;;;;;;7.40;84.60;;;;;;5067612;28;19925;-71
2023/12/17 14:24:19;;;;;;;;;;;7.40;84.50;;;;;;5062394;28;19993;-73
2023/12/17 14:26:53;;;;;;;;;;;7.40;84.80;;;;;;5058759;28;19931;-73
2023/12/17 14:29:26;;;;;;;;;;;7.40;84.70;;;;;;5049923;28;19928;-73
2023/12/17 14:32:02;;;;;;;;;;;7.40;84.70;;;;;;5049266;28;19937;-73
2023/12/17 14:34:35;;;;;;;;;;;7.40;84.70;;;;;;5044316;28;20010;-74
2023/12/17 14:37:09;;;;;;;;;;;7.30;84.80;;;;;;5051863;28;19928;-74
2023/12/17 14:39:43;;;;;;;;;;;7.30;85.00;;;;;;5069252;28;19928;-72
2023/12/17 14:42:17;;;;;;;;;;;7.20;84.80;;;;;;5064527;28;19929;-62
2023/12/17 14:44:50;;;;;;;;;;;7.20;84.90;;;;;;5064155;28;19924;-62
2023/12/17 14:47:23;;;;;;;;;;;7.20;85.00;;;;;;5062786;28;19974;-62
2023/12/17 14:49:57;;;;;;;;;;;7.20;85.00;;;;;;5065322;28;19924;-61
2023/12/17 14:52:30;;;;;;;;;;;7.20;85.10;;;;;;5066071;28;19956;-63
2023/12/17 14:55:05;;;;;;;;;;;7.20;85.20;;;;;;5067976;28;20015;-62
2023/12/17 14:57:38;;;;;;;;;;;7.20;85.20;;;;;;5067598;28;20359;-60
2023/12/17 15:00:11;;;;;;;;;;;7.10;85.20;;;;;;5064942;28;20069;-62
2023/12/17 15:02:44;;;;;;;;;;;7.10;85.20;;;;;;5054342;28;19932;-63
2023/12/17 15:05:17;;;;;;;;;;;7.00;85.20;;;;;;5059309;28;19928;-61
2023/12/17 15:07:50;;;;;;;;;;;7.00;85.40;;;;;;5063870;28;19970;-62
2023/12/17 15:10:25;;;;;;;;;;;7.00;85.40;;;;;;5066798;28;19959;-62
2023/12/17 15:12:59;;;;;;;;;;;7.00;85.50;;;;;;5066595;28;19924;-61
2023/12/17 15:15:33;;;;;;;;;;;6.90;85.60;;;;;;5062019;28;19936;-61
2023/12/17 15:18:06;;;;;;;;;;;6.90;85.60;;;;;;5044453;28;19952;-60